Time;durP1;ratioP1;P1;durP2;ratioP2;P2;SDS_P1;SDS_P2;PMS_P1;PMS_P2;Temp;Humidity;BMP_temperature;BMP_pressure;BME280_temperature;BME280_humidity;BME280_pressure;Samples;Min_cycle;Max_cycle;Signal;HPM_P1;HPM_P2
2022/07/03 00:01:20;;;;;;;1999.90;999.90;;;;;;;20.43;55.11;95687.53;5049644;28;20036;-66
2022/07/03 00:03:46;;;;;;;1999.90;999.90;;;;;;;20.44;55.04;95667.47;5050153;28;20029;-66
2022/07/03 00:06:11;;;;;;;1999.90;999.90;;;;;;;20.53;54.62;95670.00;5050322;28;20432;-67
2022/07/03 00:08:37;;;;;;;1999.90;999.90;;;;;;;20.76;54.34;95695.97;5048816;28;20017;-66
2022/07/03 00:11:03;;;;;;;1999.90;999.90;;;;;;;20.76;54.63;95668.91;5046834;28;20078;-66
2022/07/03 00:13:28;;;;;;;1999.90;999.90;;;;;;;20.59;54.54;95631.53;5050923;28;20017;-67
2022/07/03 00:15:54;;;;;;;1999.90;999.90;;;;;;;21.07;53.79;95674.53;5047266;28;20528;-66
2022/07/03 00:18:19;;;;;;;1999.90;999.90;;;;;;;21.09;53.50;95681.16;5050990;28;20025;-67
2022/07/03 00:20:52;;;;;;;1999.90;999.90;;;;;;;21.09;53.31;95667.63;5049746;28;20024;-67
2022/07/03 00:23:21;;;;;;;1999.90;999.90;;;;;;;20.90;53.19;95648.72;5049245;28;20460;-66
2022/07/03 00:25:48;;;;;;;1999.90;999.90;;;;;;;21.13;53.11;95664.97;5046488;28;20021;-66
2022/07/03 00:28:14;;;;;;;1999.90;999.90;;;;;;;21.27;53.20;95679.53;5047243;28;20073;-67
2022/07/03 00:30:42;;;;;;;1999.90;999.90;;;;;;;21.19;52.69;95666.25;5047542;28;20064;-66
2022/07/03 00:33:07;;;;;;;1999.90;999.90;;;;;;;21.26;52.80;95677.22;5042566;28;20052;-67
2022/07/03 00:35:36;;;;;;;1999.90;999.90;;;;;;;20.97;52.54;95624.50;5033696;28;20489;-67
2022/07/03 00:38:02;;;;;;;1999.90;999.90;;;;;;;21.29;52.66;95682.69;5050740;28;20107;-67
2022/07/03 00:40:28;;;;;;;1999.90;999.90;;;;;;;21.02;52.63;95632.31;5049408;28;20032;-67
2022/07/03 00:42:56;;;;;;;1999.90;999.90;;;;;;;21.27;52.29;95670.66;5050496;28;20108;-67
2022/07/03 00:45:22;;;;;;;1999.90;999.90;;;;;;;21.28;52.51;95672.97;5047444;28;20059;-67
2022/07/03 00:47:48;;;;;;;1999.90;999.90;;;;;;;21.20;52.22;95668.59;5050316;28;20052;-67
2022/07/03 00:50:14;;;;;;;1999.90;999.90;;;;;;;21.18;52.31;95667.38;5049245;28;20028;-67
2022/07/03 00:52:46;;;;;;;1999.90;999.90;;;;;;;21.17;52.23;95666.59;5029788;28;20022;-66
2022/07/03 00:55:16;;;;;;;1999.90;999.90;;;;;;;20.98;52.21;95662.00;5048639;28;20419;-66
2022/07/03 00:57:46;;;;;;;1999.90;999.90;;;;;;;20.91;52.38;95651.06;5050117;28;20025;-66
2022/07/03 01:00:14;;;;;;;1999.90;999.90;;;;;;;20.79;52.63;95651.22;5046816;28;20075;-67
2022/07/03 01:02:48;;;;;;;1999.90;999.90;;;;;;;20.82;53.04;95668.63;5050030;28;20028;-66
2022/07/03 01:05:19;;;;;;;1999.90;999.90;;;;;;;20.76;53.26;95671.63;5048398;28;20033;-68
2022/07/03 01:07:57;;;;;;;1999.90;999.90;;;;;;;20.63;53.35;95655.94;5049338;28;20029;-67
2022/07/03 01:10:45;;;;;;;1999.90;999.90;;;;;;;20.39;54.17;95633.41;5049148;28;20025;-68
2022/07/03 01:13:20;;;;;;;1999.90;999.90;;;;;;;20.57;54.24;95674.31;5036194;28;20021;-67
2022/07/03 01:16:03;;;;;;;1999.90;999.90;;;;;;;20.39;54.64;95654.22;5048944;28;20424;-67
2022/07/03 01:18:28;;;;;;;1999.90;999.90;;;;;;;20.42;54.53;95673.22;5049064;28;20141;-67
2022/07/03 01:21:06;;;;;;;1999.90;999.90;;;;;;;20.35;54.96;95669.59;5048690;28;20517;-67
2022/07/03 01:23:40;;;;;;;1999.90;999.90;;;;;;;20.11;55.13;95657.88;5048040;28;20049;-67
2022/07/03 01:26:08;;;;;;;1999.90;999.90;;;;;;;20.09;55.17;95646.66;5047902;28;20025;-67
2022/07/03 01:28:36;;;;;;;1999.90;999.90;;;;;;;20.03;55.37;95634.56;5047481;28;20033;-66
2022/07/03 01:31:02;;;;;;;1999.90;999.90;;;;;;;20.08;55.30;95628.88;5048267;28;20020;-67
2022/07/03 01:33:32;;;;;;;1999.90;999.90;;;;;;;20.41;55.44;95666.25;5049155;28;20021;-66
2022/07/03 01:36:00;;;;;;;1999.90;999.90;;;;;;;20.56;55.12;95659.25;5047537;28;20027;-67
2022/07/03 01:38:30;;;;;;;1999.90;999.90;;;;;;;20.53;55.17;95654.56;5048797;28;20676;-68
2022/07/03 01:40:57;;;;;;;1999.90;999.90;;;;;;;20.29;55.26;95641.28;5047238;28;20080;-66
2022/07/03 01:43:31;;;;;;;1999.90;999.90;;;;;;;20.55;55.07;95656.91;5040183;28;20071;-67
2022/07/03 01:46:00;;;;;;;1999.90;999.90;;;;;;;20.33;54.82;95620.53;5036043;28;20029;-67
2022/07/03 01:48:27;;;;;;;1999.90;999.90;;;;;;;20.63;54.81;95650.53;5048335;28;20040;-67
2022/07/03 01:50:55;;;;;;;1999.90;999.90;;;;;;;20.41;54.75;95625.72;5042347;28;20044;-67
2022/07/03 01:53:24;;;;;;;1999.90;999.90;;;;;;;20.33;55.01;95625.94;5029346;28;20117;-66
2022/07/03 01:55:50;;;;;;;1999.90;999.90;;;;;;;20.58;54.94;95658.91;5045075;28;20029;-67
2022/07/03 01:58:15;;;;;;;1999.90;999.90;;;;;;;20.50;55.13;95655.25;5046417;28;20492;-67
2022/07/03 02:00:46;;;;;;;1999.90;999.90;;;;;;;20.49;55.19;95664.50;5047247;28;20044;-67
2022/07/03 02:03:28;;;;;;;1999.90;999.90;;;;;;;20.29;55.60;95644.75;5049367;28;20032;-67
2022/07/03 02:06:09;;;;;;;;;;;;;;;20.34;55.56;95654.50;5044556;28;20620;-66
2022/07/03 02:08:42;;;;;;;1999.90;999.90;;;;;;;20.21;55.89;95659.25;5039255;28;19920;-67
2022/07/03 02:11:13;;;;;;;1999.90;999.90;;;;;;;19.94;56.13;95640.13;5044884;28;20500;-67
2022/07/03 02:14:17;;;;;;;1999.90;999.90;;;;;;;20.06;56.24;95658.13;5048897;28;20094;-67
2022/07/03 02:16:51;;;;;;;1999.90;999.90;;;;;;;19.97;56.47;95657.56;5047793;28;20040;-66
2022/07/03 02:19:18;;;;;;;1999.90;999.90;;;;;;;19.96;56.50;95666.78;5048332;28;20044;-68
2022/07/03 02:21:50;;;;;;;1999.90;999.90;;;;;;;19.86;57.21;95670.81;5047022;28;20035;-67
2022/07/03 02:24:20;;;;;;;1999.90;999.90;;;;;;;19.74;57.71;95670.91;5027820;28;20372;-67
2022/07/03 02:26:54;;;;;;;1999.90;999.90;;;;;;;19.57;57.44;95638.84;5046072;28;20060;-67
2022/07/03 02:29:25;;;;;;;1999.90;999.90;;;;;;;19.76;57.52;95673.25;5047598;28;20033;-66
2022/07/03 02:31:59;;;;;;;1999.90;999.90;;;;;;;19.64;57.40;95652.53;5044717;28;20428;-67
2022/07/03 02:34:27;;;;;;;1999.90;999.90;;;;;;;19.44;57.46;95635.44;5047693;28;20071;-67
2022/07/03 02:36:57;;;;;;;1999.90;999.90;;;;;;;19.58;57.54;95648.50;5048946;28;20025;-67
2022/07/03 02:39:45;;;;;;;1999.90;999.90;;;;;;;19.68;57.82;95665.00;5048214;28;20033;-67
2022/07/03 02:42:28;;;;;;;1999.90;999.90;;;;;;;19.57;57.82;95653.13;5043526;28;20040;-67
2022/07/03 02:44:57;;;;;;;1999.90;999.90;;;;;;;19.59;58.03;95671.66;5047847;28;20021;-66
2022/07/03 02:47:38;;;;;;;1999.90;999.90;;;;;;;19.51;58.08;95664.53;5046973;28;20029;-67
2022/07/03 02:50:10;;;;;;;1999.90;999.90;;;;;;;19.34;58.63;95650.25;5048516;28;20036;-66
2022/07/03 02:52:38;;;;;;;1999.90;999.90;;;;;;;19.49;58.39;95678.38;5045596;28;20167;-67
2022/07/03 02:55:19;;;;;;;1999.90;999.90;;;;;;;19.43;58.94;95677.84;5047878;28;20021;-67
2022/07/03 02:57:45;;;;;;;1999.90;999.90;;;;;;;19.27;58.87;95652.78;5044879;28;20047;-67
2022/07/03 03:00:12;;;;;;;1999.90;999.90;;;;;;;19.36;59.23;95677.66;5036876;28;20044;-67
2022/07/03 03:02:49;;;;;;;1999.90;999.90;;;;;;;19.21;59.02;95652.25;5044708;28;20025;-67
2022/07/03 03:05:21;;;;;;;1999.90;999.90;;;;;;;19.25;59.44;95654.25;5047550;28;20663;-66
2022/07/03 03:08:05;;;;;;;1999.90;999.90;;;;;;;19.38;59.33;95682.72;5046192;28;20127;-67
2022/07/03 03:10:34;;;;;;;1999.90;999.90;;;;;;;19.26;59.78;95662.00;5048369;28;20510;-66
2022/07/03 03:13:06;;;;;;;1999.90;999.90;;;;;;;19.31;59.52;95671.75;5047799;28;20052;-66
2022/07/03 03:15:33;;;;;;;1999.90;999.90;;;;;;;19.36;59.91;95677.66;5046511;28;20079;-66
2022/07/03 03:18:07;;;;;;;1999.90;999.90;;;;;;;19.28;59.86;95669.72;5049427;28;20355;-67
2022/07/03 03:20:38;;;;;;;1999.90;999.90;;;;;;;19.34;60.36;95688.00;5049132;28;20025;-66
2022/07/03 03:23:32;;;;;;;1999.90;999.90;;;;;;;19.28;60.74;95688.63;5052379;28;20520;-66
2022/07/03 03:25:58;;;;;;;1999.90;999.90;;;;;;;19.13;61.10;95679.38;5042332;28;20033;-67
2022/07/03 03:28:25;;;;;;;1999.90;999.90;;;;;;;19.24;60.81;95696.59;5050734;28;20036;-67
2022/07/03 03:30:50;;;;;;;1999.90;999.90;;;;;;;19.07;60.98;95670.75;5048920;28;20528;-66
2022/07/03 03:33:16;;;;;;;1999.90;999.90;;;;;;;19.29;61.02;95690.19;5051323;28;20108;-67
2022/07/03 03:35:42;;;;;;;1999.90;999.90;;;;;;;19.27;61.13;95678.97;5050346;28;20048;-66
2022/07/03 03:38:07;;;;;;;1999.90;999.90;;;;;;;19.41;61.03;95698.22;5050803;28;20056;-67
2022/07/03 03:40:34;;;;;;;1999.90;999.90;;;;;;;19.30;61.36;95681.75;5048324;28;20048;-66
2022/07/03 03:43:00;;;;;;;1999.90;999.90;;;;;;;19.40;61.39;95681.25;5051501;28;20025;-67
2022/07/03 03:45:26;;;;;;;1999.90;999.90;;;;;;;19.51;61.35;95695.00;5050689;28;20033;-67
2022/07/03 03:47:52;;;;;;;1999.90;999.90;;;;;;;19.51;61.52;95686.13;5045332;28;20113;-66
2022/07/03 03:50:17;;;;;;;1999.90;999.90;;;;;;;19.55;62.19;95687.78;5031743;28;20108;-66
2022/07/03 03:52:42;;;;;;;1999.90;999.90;;;;;;;19.67;61.86;95695.81;5050220;28;20032;-66
2022/07/03 03:55:09;;;;;;;1999.90;999.90;;;;;;;19.65;62.23;95684.56;5050220;28;20021;-66
2022/07/03 03:57:35;;;;;;;1999.90;999.90;;;;;;;19.73;62.23;95691.72;5046744;28;20386;-67
2022/07/03 04:00:00;;;;;;;1999.90;999.90;;;;;;;19.76;62.26;95692.16;5050886;28;20099;-66
2022/07/03 04:02:25;;;;;;;1999.90;999.90;;;;;;;19.73;62.24;95680.91;5050317;28;20109;-67
2022/07/03 04:04:51;;;;;;;1999.90;999.90;;;;;;;20.01;62.18;95712.41;5050329;28;20036;-67
2022/07/03 04:07:16;;;;;;;1999.90;999.90;;;;;;;20.28;61.53;95697.22;5050339;28;20526;-67
2022/07/03 04:09:42;;;;;;;1999.90;999.90;;;;;;;20.73;60.81;95693.19;5049160;28;20111;-66
2022/07/03 04:12:07;;;;;;;1999.90;999.90;;;;;;;21.06;59.48;95683.78;5049236;28;20032;-67
2022/07/03 04:14:33;;;;;;;1999.90;999.90;;;;;;;21.52;58.72;95706.31;5049763;28;20029;-66
2022/07/03 04:16:58;;;;;;;1999.90;999.90;;;;;;;21.87;57.87;95702.63;5047817;28;20029;-66
2022/07/03 04:19:24;;;;;;;1999.90;999.90;;;;;;;22.08;56.71;95708.38;5049458;28;20071;-66
2022/07/03 04:21:51;;;;;;;1999.90;999.90;;;;;;;22.47;56.16;95703.56;5050411;28;20367;-66
2022/07/03 04:24:17;;;;;;;1999.90;999.90;;;;;;;22.80;54.73;95705.53;5049130;28;20473;-67
2022/07/03 04:26:42;;;;;;;1999.90;999.90;;;;;;;23.11;54.33;95708.25;5047487;28;20071;-66
2022/07/03 04:29:08;;;;;;;1999.90;999.90;;;;;;;23.38;53.50;95712.41;5064897;28;20167;-67
2022/07/03 04:31:33;;;;;;;1999.90;999.90;;;;;;;23.60;52.75;95699.84;5047190;28;20107;-67
2022/07/03 04:33:58;;;;;;;1999.90;999.90;;;;;;;23.85;52.27;95705.50;5042746;28;20033;-66
2022/07/03 04:36:23;;;;;;;1999.90;999.90;;;;;;;23.85;52.09;95698.16;5049965;28;20485;-66
2022/07/03 04:38:49;;;;;;;1999.90;999.90;;;;;;;24.04;50.92;95690.91;5050509;28;20036;-66
2022/07/03 04:41:14;;;;;;;1999.90;999.90;;;;;;;24.25;51.01;95690.28;5048351;28;20129;-67
2022/07/03 04:43:40;;;;;;;1999.90;999.90;;;;;;;24.42;50.34;95697.03;5050214;28;20025;-67
2022/07/03 04:46:05;;;;;;;1999.90;999.90;;;;;;;24.56;49.97;95716.91;5044736;28;20474;-67
2022/07/03 04:48:30;;;;;;;1999.90;999.90;;;;;;;24.55;50.04;95699.03;5037286;28;20030;-66
2022/07/03 04:50:56;;;;;;;1999.90;999.90;;;;;;;24.77;49.98;95702.66;5040593;28;20043;-66
2022/07/03 04:53:22;;;;;;;1999.90;999.90;;;;;;;24.78;49.67;95698.78;5042809;28;20025;-66
2022/07/03 04:55:47;;;;;;;1999.90;999.90;;;;;;;24.92;50.09;95717.09;5034423;28;20043;-67
2022/07/03 04:58:12;;;;;;;1999.90;999.90;;;;;;;24.99;49.76;95708.19;5047595;28;20059;-67
2022/07/03 05:00:40;;;;;;;1999.90;999.90;;;;;;;25.17;49.81;95721.88;5044256;28;20115;-66
2022/07/03 05:03:06;;;;;;;1999.90;999.90;;;;;;;25.17;49.59;95714.50;5030173;28;20022;-66
2022/07/03 05:05:31;;;;;;;1999.90;999.90;;;;;;;25.29;49.18;95716.09;5048902;28;20043;-67
2022/07/03 05:07:56;;;;;;;1999.90;999.90;;;;;;;25.48;48.33;95720.41;5050111;28;20021;-67
2022/07/03 05:10:22;;;;;;;1999.90;999.90;;;;;;;25.47;48.76;95695.13;5048548;28;20037;-67
2022/07/03 05:12:47;;;;;;;1999.90;999.90;;;;;;;25.66;48.38;95713.06;5047213;28;20021;-67
2022/07/03 05:15:13;;;;;;;1999.90;999.90;;;;;;;25.72;48.64;95718.91;5048127;28;20478;-67
2022/07/03 05:17:38;;;;;;;1999.90;999.90;;;;;;;25.73;48.48;95702.16;5048300;28;20025;-67
2022/07/03 05:22:48;;;;;;;1999.90;999.90;;;;;;;26.13;47.69;95711.16;5049611;28;20090;-67
2022/07/03 05:25:13;;;;;;;1999.90;999.90;;;;;;;26.31;47.94;95720.09;5047509;28;20428;-67
2022/07/03 05:27:39;;;;;;;1999.90;999.90;;;;;;;26.51;47.59;95730.59;5047077;28;20036;-66
2022/07/03 05:30:05;;;;;;;1999.90;999.90;;;;;;;26.56;47.52;95716.56;5048967;28;20025;-68
2022/07/03 05:32:30;;;;;;;1999.90;999.90;;;;;;;26.76;47.37;95723.16;5049276;28;20033;-67
2022/07/03 05:34:56;;;;;;;1999.90;999.90;;;;;;;26.54;47.13;95678.78;5048875;28;20017;-66
2022/07/03 05:37:21;;;;;;;1999.90;999.90;;;;;;;26.99;47.02;95730.09;5048457;28;20033;-67
2022/07/03 05:39:47;;;;;;;1999.90;999.90;;;;;;;26.79;46.11;95678.69;5039339;28;20032;-67
2022/07/03 05:42:12;;;;;;;1999.90;999.90;;;;;;;27.08;46.37;95711.38;5042138;28;20467;-67
2022/07/03 05:44:37;;;;;;;1999.90;999.90;;;;;;;27.12;45.87;95703.94;5048602;28;20466;-66
2022/07/03 05:47:03;;;;;;;1999.90;999.90;;;;;;;27.03;45.27;95687.19;5048618;28;20021;-66
2022/07/03 05:49:28;;;;;;;1999.90;999.90;;;;;;;27.08;45.01;95673.16;5047701;28;20036;-66
2022/07/03 05:51:54;;;;;;;1999.90;999.90;;;;;;;27.43;45.35;95719.38;5046289;28;20074;-66
2022/07/03 05:54:19;;;;;;;1999.90;999.90;;;;;;;27.36;44.78;95710.44;5048540;28;20027;-66
2022/07/03 05:56:45;;;;;;;1999.90;999.90;;;;;;;27.49;44.93;95719.75;5046281;28;20028;-66
2022/07/03 05:59:10;;;;;;;1999.90;999.90;;;;;;;27.62;44.59;95755.59;5047612;28;20108;-66
2022/07/03 06:01:36;;;;;;;1999.90;999.90;;;;;;;27.53;44.82;95711.53;5045894;28;20021;-66
2022/07/03 06:04:01;;;;;;;1999.90;999.90;;;;;;;27.70;44.61;95735.25;5043303;28;20037;-67
2022/07/03 06:06:26;;;;;;;1999.90;999.90;;;;;;;27.20;44.35;95670.75;5029433;28;20041;-66
2022/07/03 06:08:52;;;;;;;1999.90;999.90;;;;;;;27.30;43.42;95731.94;5029502;28;20401;-66
2022/07/03 06:11:17;;;;;;;1999.90;999.90;;;;;;;26.78;43.40;95701.72;5046910;28;20040;-67
2022/07/03 06:13:42;;;;;;;1999.90;999.90;;;;;;;27.16;43.36;95729.28;5038610;28;20488;-68
2022/07/03 06:16:08;;;;;;;1999.90;999.90;;;;;;;27.00;43.41;95685.25;5047680;28;20033;-66
2022/07/03 06:18:33;;;;;;;1999.90;999.90;;;;;;;27.36;43.07;95735.03;5048050;28;20025;-65
2022/07/03 06:20:59;;;;;;;1999.90;999.90;;;;;;;27.09;42.90;95724.63;5047859;28;20543;-65
2022/07/03 06:23:24;;;;;;;1999.90;999.90;;;;;;;27.27;42.81;95745.63;5047879;28;20029;-65
2022/07/03 06:25:49;;;;;;;1999.90;999.90;;;;;;;27.10;42.47;95722.69;5046616;28;20060;-66
2022/07/03 06:28:15;;;;;;;1999.90;999.90;;;;;;;27.33;42.55;95722.97;5047537;28;20060;-65
2022/07/03 06:30:40;;;;;;;1999.90;999.90;;;;;;;27.11;41.96;95722.28;5046648;28;20116;-65
2022/07/03 06:33:06;;;;;;;1999.90;999.90;;;;;;;27.00;41.41;95696.94;5048248;28;20040;-68
2022/07/03 06:35:32;;;;;;;1999.90;999.90;;;;;;;26.56;42.38;95735.66;5048109;28;20029;-68
2022/07/03 06:38:04;;;;;;;1999.90;999.90;;;;;;;26.46;42.30;95725.56;5046912;28;20385;-68
2022/07/03 06:40:29;;;;;;;1999.90;999.90;;;;;;;26.47;42.10;95732.59;5045967;28;20481;-76
2022/07/03 06:42:54;;;;;;;1999.90;999.90;;;;;;;26.62;41.88;95736.84;5041225;28;20079;-78
2022/07/03 06:45:20;;;;;;;1999.90;999.90;;;;;;;26.36;42.08;95710.72;5046042;28;20540;-71
2022/07/03 06:47:45;;;;;;;1999.90;999.90;;;;;;;27.07;41.73;95723.44;5048858;28;20079;-74
2022/07/03 06:50:11;;;;;;;1999.90;999.90;;;;;;;27.29;41.89;95733.13;5048166;28;20040;-71
2022/07/03 06:52:36;;;;;;;1999.90;999.90;;;;;;;27.20;41.13;95740.97;5048528;28;20065;-66
2022/07/03 06:55:02;;;;;;;1999.90;999.90;;;;;;;26.86;42.25;95730.53;5052622;28;20398;-66
2022/07/03 06:57:27;;;;;;;1999.90;999.90;;;;;;;27.12;42.17;95745.66;5050724;28;20033;-67
2022/07/03 06:59:53;;;;;;;1999.90;999.90;;;;;;;26.64;41.97;95739.94;5051014;28;20035;-66
2022/07/03 07:02:18;;;;;;;1999.90;999.90;;;;;;;25.54;44.25;95695.16;5051073;28;20025;-66
2022/07/03 07:04:44;;;;;;;1999.90;999.90;;;;;;;25.37;45.01;95739.44;5050074;28;20033;-68
2022/07/03 07:07:10;;;;;;;1999.90;999.90;;;;;;;25.59;44.98;95741.06;5052185;28;20036;-66
2022/07/03 07:09:35;;;;;;;1999.90;999.90;;;;;;;25.35;45.06;95707.16;5051512;28;20036;-66
2022/07/03 07:12:01;;;;;;;1999.90;999.90;;;;;;;25.12;45.65;95758.41;5050830;28;20090;-65
2022/07/03 07:14:26;;;;;;;1999.90;999.90;;;;;;;25.47;45.54;95748.81;5048672;28;20119;-66
2022/07/03 07:16:52;;;;;;;1999.90;999.90;;;;;;;24.98;45.94;95737.34;5051155;28;20039;-66
2022/07/03 07:19:17;;;;;;;1999.90;999.90;;;;;;;25.74;44.12;95762.88;5051352;28;20040;-66
2022/07/03 07:21:43;;;;;;;1999.90;999.90;;;;;;;26.07;43.22;95729.06;5051822;28;20032;-65
2022/07/03 07:24:08;;;;;;;1999.90;999.90;;;;;;;26.57;42.87;95742.69;5051012;28;20040;-65
2022/07/03 07:26:34;;;;;;;1999.90;999.90;;;;;;;25.82;42.88;95731.78;5049995;28;20417;-65
2022/07/03 07:28:59;;;;;;;1999.90;999.90;;;;;;;25.88;42.47;95700.25;5049879;28;20712;-66
2022/07/03 07:31:24;;;;;;;1999.90;999.90;;;;;;;26.54;42.59;95727.88;5049739;28;20075;-66
2022/07/03 07:33:50;;;;;;;1999.90;999.90;;;;;;;27.25;41.56;95750.72;5050675;28;20549;-65
2022/07/03 07:36:15;;;;;;;1999.90;999.90;;;;;;;27.02;40.35;95727.34;5051792;28;20025;-66
2022/07/03 07:38:41;;;;;;;1999.90;999.90;;;;;;;27.45;40.71;95754.50;5050116;28;20032;-66
2022/07/03 07:41:06;;;;;;;1999.90;999.90;;;;;;;27.22;40.04;95722.22;5050484;28;20052;-65
2022/07/03 07:43:31;;;;;;;1999.90;999.90;;;;;;;27.18;41.29;95738.66;5049459;28;20139;-65
2022/07/03 07:45:57;;;;;;;1999.90;999.90;;;;;;;26.50;42.30;95748.94;5047952;28;20021;-67
2022/07/03 07:48:22;;;;;;;1999.90;999.90;;;;;;;26.84;41.87;95737.56;5049724;28;20414;-68
2022/07/03 07:50:49;;;;;;;1999.90;999.90;;;;;;;27.61;40.24;95743.88;5049277;28;20115;-67
2022/07/03 07:53:15;;;;;;;1999.90;999.90;;;;;;;27.28;40.10;95701.53;5051156;28;20032;-68
2022/07/03 07:55:40;;;;;;;1999.90;999.90;;;;;;;26.84;40.58;95754.72;5050086;28;20029;-67
2022/07/03 07:58:05;;;;;;;1999.90;999.90;;;;;;;25.85;42.07;95755.56;5048249;28;20033;-67
2022/07/03 08:00:31;;;;;;;1999.90;999.90;;;;;;;25.67;42.72;95703.72;5049838;28;20029;-67
2022/07/03 08:05:40;;;;;;;1999.90;999.90;;;;;;;26.15;42.35;95731.41;5047201;28;20125;-67
2022/07/03 08:08:14;;;;;;;1999.90;999.90;;;;;;;26.21;42.01;95699.09;5050421;28;20569;-67
2022/07/03 08:10:42;;;;;;;1999.90;999.90;;;;;;;26.57;42.60;95740.75;5050645;28;20033;-67
2022/07/03 08:13:09;;;;;;;1999.90;999.90;;;;;;;25.92;41.76;95690.91;5048531;28;20071;-67
2022/07/03 08:15:34;;;;;;;1999.90;999.90;;;;;;;26.22;41.13;95708.81;5047074;28;20028;-67
2022/07/03 08:18:00;;;;;;;1999.90;999.90;;;;;;;26.19;40.51;95737.63;5046652;28;20101;-67
2022/07/03 08:20:26;;;;;;;1999.90;999.90;;;;;;;25.88;40.48;95702.97;5048967;28;20055;-67
2022/07/03 08:22:51;;;;;;;1999.90;999.90;;;;;;;26.04;41.01;95759.84;5048674;28;20481;-67
2022/07/03 08:25:17;;;;;;;1999.90;999.90;;;;;;;26.46;41.08;95750.09;5049684;28;20037;-67
2022/07/03 08:27:42;;;;;;;1999.90;999.90;;;;;;;26.46;39.83;95696.31;5049824;28;20032;-67
2022/07/03 08:30:08;;;;;;;1999.90;999.90;;;;;;;26.62;40.31;95706.84;5047610;28;20028;-67
2022/07/03 08:32:34;;;;;;;1999.90;999.90;;;;;;;26.37;39.18;95729.44;5049744;28;20021;-67
2022/07/03 08:34:59;;;;;;;1999.90;999.90;;;;;;;26.52;39.92;95740.38;5049110;28;20378;-68
2022/07/03 08:37:26;;;;;;;1999.90;999.90;;;;;;;26.89;38.37;95668.91;5049747;28;20075;-67
2022/07/03 08:39:51;;;;;;;1999.90;999.90;;;;;;;27.74;37.44;95678.59;5048983;28;20041;-67
2022/07/03 08:42:17;;;;;;;1999.90;999.90;;;;;;;28.11;36.99;95683.41;5048542;28;20033;-67
2022/07/03 08:44:46;;;;;;;1999.90;999.90;;;;;;;28.25;37.31;95734.44;5048428;28;20036;-67
2022/07/03 08:47:13;;;;;;;1999.90;999.90;;;;;;;26.92;38.02;95717.25;5048586;28;20083;-68
2022/07/03 08:49:40;;;;;;;1999.90;999.90;;;;;;;26.88;38.15;95722.72;5050146;28;20029;-67
2022/07/03 08:52:07;;;;;;;1999.90;999.90;;;;;;;26.94;38.24;95672.00;5048228;28;20020;-68
2022/07/03 08:54:33;;;;;;;1999.90;999.90;;;;;;;27.07;37.38;95693.41;5048250;28;20040;-67
2022/07/03 08:57:02;;;;;;;1999.90;999.90;;;;;;;26.89;37.48;95688.81;5035494;28;20612;-67
2022/07/03 08:59:36;;;;;;;1999.90;999.90;;;;;;;26.77;38.45;95685.72;5037769;28;20260;-69
2022/07/03 09:02:04;;;;;;;1999.90;999.90;;;;;;;27.37;36.65;95685.47;5038410;28;20020;-67
2022/07/03 09:04:30;;;;;;;1999.90;999.90;;;;;;;26.70;36.31;95690.03;5033624;28;20026;-67
2022/07/03 09:06:58;;;;;;;1999.90;999.90;;;;;;;26.92;36.73;95701.66;5045988;28;20100;-67
2022/07/03 09:09:24;;;;;;;1999.90;999.90;;;;;;;27.88;34.84;95661.31;5050093;28;20119;-67
2022/07/03 09:11:50;;;;;;;1999.90;999.90;;;;;;;27.24;34.86;95659.81;5048683;28;20112;-67
2022/07/03 09:14:15;;;;;;;1999.90;999.90;;;;;;;27.50;34.15;95679.56;5046875;28;20033;-68
2022/07/03 09:16:42;;;;;;;1999.90;999.90;;;;;;;27.62;34.74;95728.25;5044258;28;20029;-67
2022/07/03 09:19:07;;;;;;;1999.90;999.90;;;;;;;27.73;34.21;95661.44;5049054;28;20079;-67
2022/07/03 09:21:40;;;;;;;1999.90;999.90;;;;;;;28.46;35.06;95723.34;5048304;28;20024;-67
2022/07/03 09:24:10;;;;;;;1999.90;999.90;;;;;;;28.39;33.59;95687.84;5048926;28;20029;-67
2022/07/03 09:26:36;;;;;;;1999.90;999.90;;;;;;;29.05;33.64;95721.56;5041588;28;20545;-68
2022/07/03 09:29:03;;;;;;;1999.90;999.90;;;;;;;28.37;33.96;95671.06;5045363;28;20121;-67
2022/07/03 09:31:30;;;;;;;1999.90;999.90;;;;;;;27.78;34.65;95684.81;5048226;28;20056;-67
2022/07/03 09:33:58;;;;;;;1999.90;999.90;;;;;;;28.67;34.06;95727.84;5040670;28;20440;-67
2022/07/03 09:36:41;;;;;;;1999.90;999.90;;;;;;;28.19;33.69;95657.53;5049562;28;20024;-67
2022/07/03 09:39:19;;;;;;;1999.90;999.90;;;;;;;28.25;34.57;95685.22;5048762;28;20074;-67
2022/07/03 09:41:52;;;;;;;1999.90;999.90;;;;;;;27.97;34.71;95687.03;5046802;28;20052;-68
2022/07/03 09:44:36;;;;;;;1999.90;999.90;;;;;;;28.88;34.04;95729.56;5045668;28;20032;-67
2022/07/03 09:47:16;;;;;;;1999.90;999.90;;;;;;;29.24;32.51;95732.69;5047779;28;20502;-67
2022/07/03 09:49:48;;;;;;;1999.90;999.90;;;;;;;28.79;34.14;95732.00;5048140;28;20048;-67
2022/07/03 09:52:29;;;;;;;;;;;;;;;28.38;33.61;95721.88;5047679;28;20036;-68
2022/07/03 09:55:11;;;;;;;1999.90;999.90;;;;;;;28.48;32.48;95712.78;5039347;28;19920;-67
2022/07/03 09:57:37;;;;;;;1999.90;999.90;;;;;;;29.02;32.59;95725.91;5047239;28;20099;-67
2022/07/03 10:00:08;;;;;;;1999.90;999.90;;;;;;;29.70;32.29;95717.59;5037142;28;20033;-67
2022/07/03 10:02:34;;;;;;;1999.90;999.90;;;;;;;29.81;32.19;95709.22;5048877;28;20028;-67
2022/07/03 10:05:12;;;;;;;1999.90;999.90;;;;;;;28.09;30.45;95679.50;5040350;28;20029;-67
2022/07/03 10:07:56;;;;;;;1999.90;999.90;;;;;;;28.27;30.80;95706.72;5038045;28;20070;-67
2022/07/03 10:10:24;;;;;;;1999.90;999.90;;;;;;;28.90;30.55;95705.28;5047056;28;20033;-80
2022/07/03 10:12:51;;;;;;;1999.90;999.90;;;;;;;28.62;30.86;95646.16;5046911;28;20025;-68
2022/07/03 10:15:17;;;;;;;1999.90;999.90;;;;;;;28.69;31.93;95686.38;5047257;28;20025;-66
2022/07/03 10:17:46;;;;;;;1999.90;999.90;;;;;;;28.98;29.66;95706.00;5047524;28;20025;-66
2022/07/03 10:20:19;;;;;;;1999.90;999.90;;;;;;;29.21;30.09;95702.59;5046553;28;20029;-66
2022/07/03 10:22:47;;;;;;;1999.90;999.90;;;;;;;29.64;28.58;95702.03;5059188;23;20045;-74
2022/07/03 10:25:14;;;;;;;1999.90;999.90;;;;;;;29.73;28.55;95699.53;5036674;28;20044;-75
2022/07/03 10:27:40;;;;;;;1999.90;999.90;;;;;;;30.18;28.89;95702.75;5028141;28;20032;-74
2022/07/03 10:30:06;;;;;;;1999.90;999.90;;;;;;;29.08;28.82;95693.38;5029293;28;20030;-73
2022/07/03 10:32:33;;;;;;;1999.90;999.90;;;;;;;30.15;28.61;95686.34;5030928;28;20034;-76
2022/07/03 10:35:01;;;;;;;1999.90;999.90;;;;;;;30.28;29.28;95660.63;5031709;28;20013;-73
2022/07/03 10:37:33;;;;;;;1999.90;999.90;;;;;;;30.30;29.35;95687.66;5033330;28;20366;-76
2022/07/03 10:46:09;;;;;;;1999.90;999.90;;;;;;;30.22;28.27;95675.28;5031674;28;20036;-72
2022/07/03 10:48:58;;;;;;;1999.90;999.90;;;;;;;30.19;26.32;95692.56;5031623;28;20025;-83
2022/07/03 10:51:25;;;;;;;1999.90;999.90;;;;;;;30.58;25.48;95691.09;5034123;28;20056;-80
2022/07/03 10:54:13;;;;;;;1999.90;999.90;;;;;;;29.55;26.36;95691.59;5029344;28;20433;-78
2022/07/03 10:56:57;;;;;;;1999.90;999.90;;;;;;;29.21;26.54;95686.16;5034095;28;20493;-79
2022/07/03 10:59:22;;;;;;;1999.90;999.90;;;;;;;30.28;25.88;95655.16;5034422;28;20474;-81
2022/07/03 11:01:48;;;;;;;1999.90;999.90;;;;;;;29.44;25.88;95634.16;5032947;28;20055;-81
2022/07/03 11:04:13;;;;;;;1999.90;999.90;;;;;;;29.85;26.75;95673.53;5034683;28;20029;-81
2022/07/03 11:06:42;;;;;;;1999.90;999.90;;;;;;;30.57;25.91;95678.56;5031687;28;20037;-81
2022/07/03 11:09:10;;;;;;;1999.90;999.90;;;;;;;30.54;26.07;95637.03;5034224;28;20108;-82
2022/07/03 11:11:57;;;;;;;1999.90;999.90;;;;;;;29.78;25.26;95668.91;5034238;28;20021;-83